Time;durP1;ratioP1;P1;durP2;ratioP2;P2;SDS_P1;SDS_P2;PMS_P1;PMS_P2;Temp;Humidity;BMP_temperature;BMP_pressure;BME280_temperature;BME280_humidity;BME280_pressure;Samples;Min_cycle;Max_cycle;Signal;HPM_P1;HPM_P2
2024/03/20 00:01:14;;;;;;;;;;;;;;;0.44;78.71;93225.97;5026979;28;19917;-74
2024/03/20 00:03:40;;;;;;;;;;;;;;;0.42;77.57;93219.47;5027266;28;19921;-74
2024/03/20 00:06:05;;;;;;;;;;;;;;;0.28;77.97;93226.66;5027445;28;20277;-74
2024/03/20 00:08:31;;;;;;;;;;;;;;;0.41;78.05;93233.06;5026719;28;19917;-74
2024/03/20 00:10:56;;;;;;;;;;;;;;;0.45;79.10;93232.63;5024095;28;20435;-74
2024/03/20 00:13:22;;;;;;;;;;;;;;;0.67;80.20;93228.03;5027633;28;19917;-74
2024/03/20 00:15:48;;;;;;;;;;;;;;;0.93;80.29;93222.19;5024949;28;19913;-74
2024/03/20 00:18:14;;;;;;;;;;;;;;;0.99;78.33;93230.88;5023228;28;19927;-75
2024/03/20 00:20:40;;;;;;;;;;;;;;;1.20;78.08;93233.03;5028362;28;19917;-75
2024/03/20 00:23:05;;;;;;;;;;;;;;;0.92;76.82;93228.97;5023712;28;19924;-74
2024/03/20 00:25:30;;;;;;;;;;;;;;;1.12;78.20;93227.94;5026441;28;20995;-74
2024/03/20 00:27:56;;;;;;;;;;;;;;;1.22;78.50;93225.28;5025013;28;19967;-74
2024/03/20 00:30:21;;;;;;;;;;;;;;;1.44;78.21;93226.50;5022810;28;19917;-74
2024/03/20 00:32:46;;;;;;;;;;;;;;;1.56;77.30;93230.34;5023962;28;19921;-75
2024/03/20 00:35:12;;;;;;;;;;;;;;;1.62;76.19;93228.13;5023989;28;20325;-75
2024/03/20 00:37:37;;;;;;;;;;;;;;;1.56;75.94;93227.00;5021891;28;19918;-74
2024/03/20 00:40:04;;;;;;;;;;;;;;;1.63;76.16;93224.66;5025586;28;19924;-75
2024/03/20 00:42:29;;;;;;;;;;;;;;;1.70;76.42;93223.06;5027419;28;19967;-75
2024/03/20 00:44:55;;;;;;;;;;;;;;;1.48;73.87;93232.81;5023354;28;19917;-75
2024/03/20 00:47:21;;;;;;;;;;;;;;;1.03;74.90;93229.66;5022076;28;19920;-75
2024/03/20 00:49:47;;;;;;;;;;;;;;;0.98;76.47;93226.78;5027817;28;20329;-75
2024/03/20 00:52:12;;;;;;;;;;;;;;;0.64;77.14;93230.84;5025017;28;19928;-75
2024/03/20 00:54:40;;;;;;;;;;;;;;;0.34;77.92;93230.31;5027140;28;19917;-75
2024/03/20 00:57:05;;;;;;;;;;;;;;;0.07;79.64;93232.81;5024514;28;19928;-75
2024/03/20 00:59:31;;;;;;;;;;;;;;;-0.27;80.47;93233.44;5026291;28;19940;-75
2024/03/20 01:01:56;;;;;;;;;;;;;;;-0.26;82.49;93224.91;5020351;28;19913;-75
2024/03/20 01:04:21;;;;;;;;;;;;;;;-0.32;82.96;93223.75;5025381;28;19932;-75
2024/03/20 01:06:47;;;;;;;;;;;;;;;-0.08;82.66;93219.88;5025443;28;20000;-75
2024/03/20 01:09:12;;;;;;;;;;;;;;;0.00;81.59;93214.13;5025483;28;20439;-75
2024/03/20 01:11:37;;;;;;;;;;;;;;;0.05;81.94;93219.50;5024773;28;19924;-75
2024/03/20 01:14:03;;;;;;;;;;;;;;;0.10;82.52;93212.28;5027266;28;19921;-75
2024/03/20 01:16:28;;;;;;;;;;;;;;;0.16;82.10;93210.91;5021120;28;20688;-76
2024/03/20 01:18:54;;;;;;;;;;;;;;;0.21;81.24;93211.28;5024645;28;19920;-75
2024/03/20 01:21:19;;;;;;;;;;;;;;;0.49;82.71;93206.13;5023973;28;19928;-77
2024/03/20 01:23:45;;;;;;;;;;;;;;;0.54;80.09;93208.19;5023979;28;20553;-76
2024/03/20 01:26:10;;;;;;;;;;;;;;;0.74;81.68;93205.47;5024395;28;19917;-76
2024/03/20 01:28:36;;;;;;;;;;;;;;;0.92;80.74;93207.91;5023945;28;19917;-76
2024/03/20 01:31:01;;;;;;;;;;;;;;;0.99;79.15;93208.91;5020163;28;19972;-76
2024/03/20 01:33:26;;;;;;;;;;;;;;;1.14;78.21;93206.63;5025685;28;19913;-76
2024/03/20 01:35:52;;;;;;;;;;;;;;;1.26;78.57;93212.22;5024978;28;19921;-76
2024/03/20 01:38:17;;;;;;;;;;;;;;;1.29;78.76;93206.81;5025210;28;20838;-76
2024/03/20 01:40:42;;;;;;;;;;;;;;;1.34;79.94;93211.41;5026719;28;20349;-76
2024/03/20 01:43:21;;;;;;;;;;;;;;;1.35;79.38;93212.22;5027114;28;19913;-76
2024/03/20 01:45:47;;;;;;;;;;;;;;;1.31;79.15;93216.81;5027709;28;19921;-75
2024/03/20 01:48:13;;;;;;;;;;;;;;;1.38;81.09;93214.47;5030930;28;19913;-76
2024/03/20 01:50:38;;;;;;;;;;;;;;;1.40;81.37;93215.09;5030901;28;19959;-76
2024/03/20 01:53:04;;;;;;;;;;;;;;;1.35;80.30;93214.75;5028358;28;20374;-76
2024/03/20 01:55:30;;;;;;;;;;;;;;;1.33;81.37;93212.38;5029335;28;20015;-75
2024/03/20 01:57:56;;;;;;;;;;;;;;;1.25;79.83;93205.53;5027921;28;20016;-76
2024/03/20 02:00:21;;;;;;;;;;;;;;;1.22;80.82;93215.16;5028641;28;20715;-76
2024/03/20 02:02:47;;;;;;;;;;;;;;;1.15;81.52;93207.41;5030164;28;20443;-76
2024/03/20 02:05:13;;;;;;;;;;;;;;;1.05;82.86;93202.44;5031169;28;20419;-76
2024/03/20 02:07:38;;;;;;;;;;;;;;;1.04;82.53;93205.94;5029908;28;19913;-76
2024/03/20 02:10:05;;;;;;;;;;;;;;;0.91;83.43;93208.88;5029835;28;20000;-77
2024/03/20 02:12:30;;;;;;;;;;;;;;;0.75;84.37;93217.94;5030429;28;19963;-77
2024/03/20 02:14:57;;;;;;;;;;;;;;;0.70;85.13;93222.69;5028452;28;19944;-77
2024/03/20 02:17:22;;;;;;;;;;;;;;;0.74;86.50;93218.13;5026043;28;19925;-77
2024/03/20 02:19:48;;;;;;;;;;;;;;;0.74;85.40;93216.38;5029150;28;19917;-76
2024/03/20 02:22:13;;;;;;;;;;;;;;;0.76;85.59;93213.69;5030143;28;19913;-77
2024/03/20 02:24:38;;;;;;;;;;;;;;;0.79;85.06;93218.47;5028048;28;19917;-77
2024/03/20 02:27:04;;;;;;;;;;;;;;;0.76;84.21;93222.09;5029956;28;19913;-77
2024/03/20 02:29:29;;;;;;;;;;;;;;;0.73;84.75;93222.38;5030180;28;20304;-77
2024/03/20 02:31:54;;;;;;;;;;;;;;;0.74;84.90;93226.47;5029366;28;20428;-77
2024/03/20 02:34:20;;;;;;;;;;;;;;;0.77;85.85;93216.06;5030179;28;20365;-77
2024/03/20 02:36:46;;;;;;;;;;;;;;;0.83;87.08;93221.47;5028596;28;19928;-77
2024/03/20 02:39:13;;;;;;;;;;;;;;;0.79;86.54;93224.28;5029738;28;20385;-77
2024/03/20 02:41:38;;;;;;;;;;;;;;;0.80;86.87;93223.34;5027917;28;20000;-77
2024/03/20 02:44:03;;;;;;;;;;;;;;;0.83;87.09;93226.53;5026384;28;20355;-77
2024/03/20 02:46:29;;;;;;;;;;;;;;;0.84;87.25;93223.88;5030154;28;19916;-76
2024/03/20 02:48:54;;;;;;;;;;;;;;;0.83;86.20;93221.47;5030019;28;20316;-77
2024/03/20 02:51:20;;;;;;;;;;;;;;;0.86;86.47;93229.56;5030120;28;19913;-77
2024/03/20 02:53:45;;;;;;;;;;;;;;;0.90;87.30;93235.09;5027974;28;19940;-77
2024/03/20 02:56:10;;;;;;;;;;;;;;;0.86;86.33;93226.22;5029729;28;20411;-77
2024/03/20 02:58:36;;;;;;;;;;;;;;;0.85;87.29;93225.44;5027577;28;20332;-77
2024/03/20 03:01:01;;;;;;;;;;;;;;;0.89;87.85;93224.19;5027430;28;19917;-75
2024/03/20 03:03:27;;;;;;;;;;;;;;;0.84;88.12;93223.06;5029399;28;19967;-74
2024/03/20 03:05:52;;;;;;;;;;;;;;;0.78;87.37;93226.97;5027479;28;19928;-76
2024/03/20 03:08:17;;;;;;;;;;;;;;;0.74;87.64;93223.94;5029771;28;19913;-75
2024/03/20 03:10:43;;;;;;;;;;;;;;;0.73;88.36;93229.16;5029689;28;19917;-76
2024/03/20 03:13:08;;;;;;;;;;;;;;;0.72;89.31;93227.56;5027565;28;19948;-76
2024/03/20 03:15:34;;;;;;;;;;;;;;;0.69;88.80;93233.72;5029106;28;19920;-76
2024/03/20 03:17:59;;;;;;;;;;;;;;;0.62;88.25;93233.53;5024045;28;19913;-75
2024/03/20 03:20:26;;;;;;;;;;;;;;;0.58;89.59;93229.72;5028266;28;19924;-75
2024/03/20 03:22:52;;;;;;;;;;;;;;;0.54;89.27;93230.94;5028524;28;19924;-75
2024/03/20 03:25:17;;;;;;;;;;;;;;;0.48;89.01;93236.59;5028889;28;19923;-76
2024/03/20 03:27:43;;;;;;;;;;;;;;;0.38;89.87;93245.03;5025717;28;19913;-75
2024/03/20 03:30:08;;;;;;;;;;;;;;;0.40;90.52;93242.38;5029159;28;19913;-76
2024/03/20 03:32:37;;;;;;;;;;;;;;;0.36;90.95;93243.59;5029205;28;19913;-76
2024/03/20 03:35:04;;;;;;;;;;;;;;;0.35;91.30;93247.88;5027513;28;19927;-76
2024/03/20 03:37:29;;;;;;;;;;;;;;;0.32;91.95;93243.09;5028758;28;19928;-76
2024/03/20 03:39:54;;;;;;;;;;;;;;;0.31;92.51;93245.75;5028892;28;19913;-76
2024/03/20 03:42:20;;;;;;;;;;;;;;;0.28;92.41;93248.59;5026899;28;20012;-76
2024/03/20 03:44:45;;;;;;;;;;;;;;;0.25;92.35;93247.16;5028573;28;19920;-76
2024/03/20 03:47:11;;;;;;;;;;;;;;;0.23;92.62;93249.03;5028755;28;19913;-76
2024/03/20 03:49:36;;;;;;;;;;;;;;;0.20;91.84;93251.84;5020388;28;19922;-75
2024/03/20 03:52:03;;;;;;;;;;;;;;;0.09;92.09;93253.66;5027446;28;19917;-75
2024/03/20 03:54:29;;;;;;;;;;;;;;;0.09;93.53;93265.50;5021710;28;19917;-75
2024/03/20 03:56:54;;;;;;;;;;;;;;;0.10;94.06;93267.06;5028618;28;19966;-75
2024/03/20 03:59:19;;;;;;;;;;;;;;;0.10;94.95;93272.13;5025308;28;19916;-75
2024/03/20 04:01:48;;;;;;;;;;;;;;;0.11;95.11;93264.41;5024977;28;20432;-75
2024/03/20 04:04:13;;;;;;;;;;;;;;;0.13;93.85;93284.44;5026310;28;19925;-75
2024/03/20 04:06:39;;;;;;;;;;;;;;;0.11;92.98;93279.56;5026557;28;19921;-75
2024/03/20 04:09:05;;;;;;;;;;;;;;;0.11;93.45;93278.75;5023586;28;19917;-75
2024/03/20 04:11:30;;;;;;;;;;;;;;;0.12;93.88;93287.91;5026510;28;19917;-75
2024/03/20 04:13:56;;;;;;;;;;;;;;;0.15;94.60;93280.06;5026568;28;19917;-75
2024/03/20 04:16:21;;;;;;;;;;;;;;;0.17;94.23;93284.97;5026278;28;19917;-75
2024/03/20 04:18:46;;;;;;;;;;;;;;;0.15;94.51;93286.84;5026328;28;19913;-75
2024/03/20 04:21:12;;;;;;;;;;;;;;;0.18;93.40;93289.88;5025080;28;19913;-75
2024/03/20 04:23:37;;;;;;;;;;;;;;;0.22;93.75;93280.28;5027076;28;19913;-74
2024/03/20 04:26:02;;;;;;;;;;;;;;;0.16;93.66;93286.72;5022641;28;19928;-74
2024/03/20 04:28:28;;;;;;;;;;;;;;;0.09;93.41;93281.44;5027375;28;19913;-75
2024/03/20 04:30:53;;;;;;;;;;;;;;;0.04;92.91;93285.34;5026199;28;19924;-75
2024/03/20 04:33:18;;;;;;;;;;;;;;;0.05;93.50;93292.75;5025736;28;19913;-75
2024/03/20 04:35:44;;;;;;;;;;;;;;;0.10;92.85;93283.00;5025527;28;19921;-74
2024/03/20 04:38:09;;;;;;;;;;;;;;;0.13;94.05;93287.78;5027187;28;20008;-74
2024/03/20 04:40:35;;;;;;;;;;;;;;;0.12;93.60;93293.78;5023987;28;20047;-75
2024/03/20 04:43:00;;;;;;;;;;;;;;;0.07;93.61;93295.13;5023402;28;20289;-75
2024/03/20 04:45:26;;;;;;;;;;;;;;;0.02;94.03;93299.81;5027247;28;19913;-75
2024/03/20 04:47:51;;;;;;;;;;;;;;;0.09;93.92;93301.63;5027240;28;19960;-74
2024/03/20 04:50:17;;;;;;;;;;;;;;;0.16;93.40;93309.44;5025845;28;19928;-74
2024/03/20 04:52:42;;;;;;;;;;;;;;;0.17;93.04;93311.03;5024348;28;19920;-74
2024/03/20 04:55:07;;;;;;;;;;;;;;;0.16;93.99;93319.53;5027099;28;19916;-74
2024/03/20 04:57:33;;;;;;;;;;;;;;;0.09;93.35;93316.78;5027253;28;19916;-74
2024/03/20 04:59:59;;;;;;;;;;;;;;;0.13;94.09;93323.16;5028900;28;20399;-74
2024/03/20 05:02:25;;;;;;;;;;;;;;;0.15;94.49;93325.53;5039668;28;19928;-75
2024/03/20 05:04:50;;;;;;;;;;;;;;;0.10;94.82;93320.13;5037662;28;19944;-74
2024/03/20 05:07:15;;;;;;;;;;;;;;;-0.63;94.96;93215.69;5036650;28;19920;-74
2024/03/20 05:09:40;;;;;;;;;;;;;;;0.07;93.50;93325.44;5039188;28;19923;-74
2024/03/20 05:12:06;;;;;;;;;;;;;;;-0.05;94.39;93327.41;5039670;28;19913;-74
2024/03/20 05:14:31;;;;;;;;;;;;;;;-0.01;95.84;93326.16;5037874;28;19981;-74
2024/03/20 05:17:00;;;;;;;;;;;;;;;0.09;95.61;93333.69;5036613;28;19913;-74
2024/03/20 05:19:25;;;;;;;;;;;;;;;0.12;94.78;93335.91;5038630;28;19916;-74
2024/03/20 05:21:51;;;;;;;;;;;;;;;0.13;95.06;93333.25;5036423;28;19917;-74
2024/03/20 05:24:18;;;;;;;;;;;;;;;0.15;95.21;93339.88;5033995;28;19924;-74
2024/03/20 05:26:43;;;;;;;;;;;;;;;0.24;94.33;93334.75;5040326;28;19916;-75
2024/03/20 05:29:09;;;;;;;;;;;;;;;0.18;93.62;93342.16;5032989;28;19921;-75
2024/03/20 05:31:34;;;;;;;;;;;;;;;0.31;94.31;93342.56;5036561;28;19964;-74
2024/03/20 05:33:59;;;;;;;;;;;;;;;0.38;94.01;93343.59;5040997;28;19920;-73
2024/03/20 05:36:25;;;;;;;;;;;;;;;0.49;94.34;93346.84;5026922;28;19924;-74
2024/03/20 05:38:50;;;;;;;;;;;;;;;0.57;93.65;93346.13;5037551;28;20405;-74
2024/03/20 05:41:15;;;;;;;;;;;;;;;0.65;93.57;93351.25;5040316;28;19960;-74
2024/03/20 05:43:41;;;;;;;;;;;;;;;0.75;92.43;93341.84;5026906;28;19991;-74
2024/03/20 05:46:09;;;;;;;;;;;;;;;0.82;92.13;93356.44;5037728;28;20034;-74
2024/03/20 05:48:35;;;;;;;;;;;;;;;0.96;91.97;93358.44;5042068;28;19913;-74
2024/03/20 05:51:00;;;;;;;;;;;;;;;1.11;91.35;93365.50;5029784;28;19971;-74
2024/03/20 05:53:25;;;;;;;;;;;;;;;1.28;89.84;93363.88;5037186;28;20049;-74
2024/03/20 05:55:51;;;;;;;;;;;;;;;1.39;90.85;93363.63;5044026;28;19924;-74
2024/03/20 05:58:19;;;;;;;;;;;;;;;1.60;88.64;93367.53;5038134;28;19919;-74
2024/03/20 06:00:44;;;;;;;;;;;;;;;1.83;88.21;93367.00;5034050;28;19913;-74
2024/03/20 06:03:10;;;;;;;;;;;;;;;2.02;86.85;93365.16;5038139;28;20360;-75
2024/03/20 06:05:35;;;;;;;;;;;;;;;2.19;86.00;93373.63;5036630;28;20416;-74
2024/03/20 06:08:00;;;;;;;;;;;;;;;2.44;85.56;93378.78;5033401;28;20448;-75
2024/03/20 06:10:26;;;;;;;;;;;;;;;2.62;84.67;93368.50;5036374;28;19913;-74
2024/03/20 06:12:51;;;;;;;;;;;;;;;2.83;83.43;93372.31;5038298;28;20384;-75
2024/03/20 06:15:16;;;;;;;;;;;;;;;2.93;82.87;93378.81;5033175;28;19917;-75
2024/03/20 06:17:43;;;;;;;;;;;;;;;3.09;81.58;93382.31;5039979;28;19951;-75
2024/03/20 06:20:08;;;;;;;;;;;;;;;3.27;81.65;93381.34;5034557;28;19913;-75
2024/03/20 06:22:34;;;;;;;;;;;;;;;3.42;80.81;93387.38;5041333;28;19920;-75
2024/03/20 06:25:06;;;;;;;;;;;;;;;3.54;81.12;93385.28;5037048;28;20035;-75
2024/03/20 06:27:31;;;;;;;;;;;;;;;3.70;79.59;93386.22;5039304;28;19940;-75
2024/03/20 06:29:58;;;;;;;;;;;;;;;3.80;79.07;93396.97;5034559;28;20373;-75
2024/03/20 06:32:24;;;;;;;;;;;;;;;3.99;78.56;93393.25;5035262;28;20090;-75
2024/03/20 06:34:49;;;;;;;;;;;;;;;4.16;77.80;93398.28;5045214;28;20544;-74
2024/03/20 06:37:14;;;;;;;;;;;;;;;4.34;76.87;93399.78;5039498;28;19913;-75
2024/03/20 06:39:40;;;;;;;;;;;;;;;4.48;77.24;93401.63;5038132;28;19913;-74
2024/03/20 06:42:14;;;;;;;;;;;;;;;4.65;76.47;93406.63;5044859;28;19994;-74
2024/03/20 06:44:39;;;;;;;;;;;;;;;4.86;75.29;93407.78;5043563;28;19917;-75
2024/03/20 06:47:05;;;;;;;;;;;;;;;5.04;74.57;93413.38;5044448;28;19935;-75
2024/03/20 06:49:33;;;;;;;;;;;;;;;5.19;71.91;93417.75;5038102;28;19924;-75
2024/03/20 06:51:58;;;;;;;;;;;;;;;5.22;67.35;93422.47;5042932;28;19916;-75
2024/03/20 06:54:26;;;;;;;;;;;;;;;4.66;65.63;93424.28;5041695;28;19919;-75
2024/03/20 06:56:58;;;;;;;;;;;;;;;4.49;67.87;93427.88;5042398;28;20429;-75
2024/03/20 06:59:24;;;;;;;;;;;;;;;4.75;68.74;93429.31;5039399;28;20392;-75
2024/03/20 07:01:49;;;;;;;;;;;;;;;4.70;69.68;93404.38;5038905;28;19920;-75
2024/03/20 07:04:14;;;;;;;;;;;;;;;4.52;70.60;93435.16;5046026;28;19927;-76
2024/03/20 07:06:40;;;;;;;;;;;;;;;4.25;70.03;93437.97;5038539;28;19921;-76
2024/03/20 07:09:08;;;;;;;;;;;;;;;4.45;72.48;93432.50;5047295;28;19923;-76
2024/03/20 07:11:33;;;;;;;;;;;;;;;4.61;70.51;93438.44;5031897;28;20273;-76
2024/03/20 07:13:58;;;;;;;;;;;;;;;5.01;73.71;93430.75;5043929;28;19924;-76
2024/03/20 07:16:24;;;;;;;;;;;;;;;4.93;68.03;93442.59;5041760;28;19963;-76
2024/03/20 07:18:49;;;;;;;;;;;;;;;4.36;69.03;93444.44;5045855;28;19917;-76
2024/03/20 07:21:14;;;;;;;;;;;;;;;4.63;68.88;93441.63;5043206;28;19920;-77
2024/03/20 07:23:40;;;;;;;;;;;;;;;5.00;69.73;93439.34;5042728;28;19974;-76
2024/03/20 07:26:06;;;;;;;;;;;;;;;5.11;67.01;93444.06;5041930;28;19920;-76
2024/03/20 07:28:32;;;;;;;;;;;;;;;5.47;71.31;93443.44;5042938;28;19917;-76
2024/03/20 07:30:58;;;;;;;;;;;;;;;5.30;66.00;93452.19;5040839;28;19917;-76
2024/03/20 07:33:23;;;;;;;;;;;;;;;4.93;66.51;93447.69;5041906;28;19924;-75
2024/03/20 07:35:49;;;;;;;;;;;;;;;5.18;69.65;93444.94;5041889;28;19970;-75
2024/03/20 07:38:15;;;;;;;;;;;;;;;5.24;69.31;93446.03;5041276;28;20353;-75
2024/03/20 07:40:41;;;;;;;;;;;;;;;5.62;70.51;93435.06;5041563;28;20115;-75
2024/03/20 07:43:07;;;;;;;;;;;;;;;5.67;67.92;93434.53;5041348;28;20339;-75
2024/03/20 07:45:33;;;;;;;;;;;;;;;5.55;66.97;93437.50;5042636;28;19917;-75
2024/03/20 07:47:59;;;;;;;;;;;;;;;5.83;70.74;93434.38;5043290;28;19943;-75
2024/03/20 07:50:24;;;;;;;;;;;;;;;6.13;71.21;93420.88;5044327;28;20291;-75
2024/03/20 07:52:50;;;;;;;;;;;;;;;4.91;68.92;93441.94;5043415;28;20007;-75
2024/03/20 07:55:15;;;;;;;;;;;;;;;5.31;72.20;93441.84;5040597;28;20797;-76
2024/03/20 07:57:40;;;;;;;;;;;;;;;6.04;72.63;93434.69;5041785;28;19921;-75
2024/03/20 08:00:08;;;;;;;;;;;;;;;5.31;69.92;93446.94;5042418;28;19928;-75
2024/03/20 08:02:33;;;;;;;;;;;;;;;5.37;72.26;93447.22;5036344;28;19917;-75
2024/03/20 08:04:59;;;;;;;;;;;;;;;5.72;68.58;93447.53;5040069;28;19966;-75
2024/03/20 08:07:24;;;;;;;;;;;;;;;6.01;67.42;93446.78;5041392;28;19925;-75
2024/03/20 08:09:50;;;;;;;;;;;;;;;5.70;66.71;93444.38;5039309;28;20015;-73
2024/03/20 08:12:15;;;;;;;;;;;;;;;6.14;69.70;93446.22;5043939;28;20282;-73
2024/03/20 08:14:40;;;;;;;;;;;;;;;6.55;67.06;93441.59;5039924;28;20000;-73
2024/03/20 08:17:07;;;;;;;;;;;;;;;7.10;69.53;93436.09;5041013;28;20379;-72
2024/03/20 08:19:33;;;;;;;;;;;;;;;6.74;66.38;93439.44;5041872;28;19917;-72
2024/03/20 08:21:58;;;;;;;;;;;;;;;7.33;66.49;93440.22;5041775;28;19916;-73
2024/03/20 08:24:23;;;;;;;;;;;;;;;6.75;66.09;93438.50;5040894;28;20203;-72
2024/03/20 08:26:49;;;;;;;;;;;;;;;6.46;67.36;93429.91;5040733;28;19917;-73
2024/03/20 08:29:15;;;;;;;;;;;;;;;6.45;68.55;93435.97;5035554;28;19955;-72
2024/03/20 08:31:40;;;;;;;;;;;;;;;6.59;66.44;93431.81;5041410;28;20003;-75
2024/03/20 08:34:05;;;;;;;;;;;;;;;6.60;65.97;93429.09;5041557;28;20376;-75
2024/03/20 08:36:31;;;;;;;;;;;;;;;6.98;68.83;93423.00;5043039;28;20285;-75
2024/03/20 08:38:56;;;;;;;;;;;;;;;6.96;67.78;93417.28;5040609;28;20015;-76
2024/03/20 08:41:21;;;;;;;;;;;;;;;6.64;65.33;93424.41;5041034;28;20269;-75
2024/03/20 08:43:48;;;;;;;;;;;;;;;6.08;65.97;93421.41;5040526;28;19923;-75
2024/03/20 08:46:14;;;;;;;;;;;;;;;6.47;68.11;93426.41;5041538;28;19917;-74
2024/03/20 08:48:40;;;;;;;;;;;;;;;7.00;73.47;93417.72;5042163;28;19917;-75
2024/03/20 08:51:05;;;;;;;;;;;;;;;7.44;68.58;93421.81;5041836;28;20498;-75
2024/03/20 08:53:32;;;;;;;;;;;;;;;7.62;67.08;93425.69;5040390;28;20008;-75
2024/03/20 08:55:58;;;;;;;;;;;;;;;7.71;67.07;93416.09;5040819;28;19982;-75
2024/03/20 08:58:23;;;;;;;;;;;;;;;7.75;63.75;93419.88;5042094;28;20019;-75
2024/03/20 09:00:48;;;;;;;;;;;;;;;7.17;62.18;93418.28;5042859;28;20448;-75
2024/03/20 09:03:14;;;;;;;;;;;;;;;7.42;65.97;93418.66;5040349;28;19969;-75
2024/03/20 09:05:41;;;;;;;;;;;;;;;7.61;66.25;93413.88;5041557;28;19920;-75
2024/03/20 09:08:08;;;;;;;;;;;;;;;7.88;67.29;93409.72;5040635;28;19921;-73
2024/03/20 09:10:33;;;;;;;;;;;;;;;7.52;62.63;93408.13;5044838;28;19912;-73
2024/03/20 09:12:59;;;;;;;;;;;;;;;7.12;62.96;93413.69;5039661;28;20459;-72
2024/03/20 09:15:24;;;;;;;;;;;;;;;7.56;64.54;93411.91;5041221;28;20708;-72
2024/03/20 09:17:52;;;;;;;;;;;;;;;7.48;66.35;93414.56;5041156;28;19924;-72
2024/03/20 09:20:19;;;;;;;;;;;;;;;7.53;61.08;93416.56;5040687;28;19921;-72
2024/03/20 09:22:47;;;;;;;;;;;;;;;7.54;63.18;93411.28;5042540;28;20000;-72
2024/03/20 09:25:16;;;;;;;;;;;;;;;6.72;62.66;93410.75;5041270;28;19924;-72
2024/03/20 09:27:41;;;;;;;;;;;;;;;6.48;61.67;93408.34;5041077;28;19917;-72
2024/03/20 09:30:07;;;;;;;;;;;;;;;6.56;67.63;93394.69;5043860;28;20206;-74
2024/03/20 09:32:32;;;;;;;;;;;;;;;6.43;63.47;93397.09;5035580;28;19920;-74
2024/03/20 09:35:01;;;;;;;;;;;;;;;6.84;64.16;93395.75;5036518;28;19928;-75
2024/03/20 09:37:26;;;;;;;;;;;;;;;6.83;65.77;93400.06;5042570;28;19917;-74
2024/03/20 09:39:53;;;;;;;;;;;;;;;6.93;63.01;93397.22;5041677;28;19916;-74
2024/03/20 09:42:19;;;;;;;;;;;;;;;7.33;62.15;93407.00;5038562;28;19956;-75
2024/03/20 09:44:45;;;;;;;;;;;;;;;7.39;68.38;93390.13;5039792;28;20328;-75
2024/03/20 09:47:11;;;;;;;;;;;;;;;7.55;60.62;93397.50;5043361;28;19924;-75
2024/03/20 09:49:36;;;;;;;;;;;;;;;7.52;65.26;93391.97;5041183;28;20381;-74
2024/03/20 09:52:01;;;;;;;;;;;;;;;7.06;65.32;93396.53;5036735;28;19913;-74
2024/03/20 09:54:26;;;;;;;;;;;;;;;7.71;69.10;93382.88;5042989;28;20293;-75
2024/03/20 09:56:53;;;;;;;;;;;;;;;8.31;63.94;93387.50;5044481;28;20300;-75
2024/03/20 09:59:18;;;;;;;;;;;;;;;8.18;60.87;93390.03;5038701;28;19920;-75
2024/03/20 10:01:43;;;;;;;;;;;;;;;7.78;62.25;93388.03;5036693;28;19968;-74
2024/03/20 10:04:10;;;;;;;;;;;;;;;8.23;60.92;93385.09;5035225;28;19924;-75
2024/03/20 10:06:36;;;;;;;;;;;;;;;8.12;62.37;93381.31;5040165;28;20377;-75
2024/03/20 10:09:03;;;;;;;;;;;;;;;8.65;62.28;93382.50;5045111;28;20021;-75
2024/03/20 10:11:29;;;;;;;;;;;;;;;9.23;65.82;93374.31;5041353;28;19959;-75
2024/03/20 10:13:56;;;;;;;;;;;;;;;9.58;57.83;93373.34;5045713;28;19917;-75
2024/03/20 10:16:22;;;;;;;;;;;;;;;9.58;56.60;93375.13;5041767;28;19970;-74
2024/03/20 10:18:47;;;;;;;;;;;;;;;8.27;55.81;93382.00;5047380;28;19912;-75
2024/03/20 10:21:13;;;;;;;;;;;;;;;8.39;56.35;93371.19;5047665;28;20011;-75
2024/03/20 10:23:39;;;;;;;;;;;;;;;8.15;57.44;93378.41;5033902;28;19917;-75
2024/03/20 10:26:05;;;;;;;;;;;;;;;8.21;57.64;93369.97;5044326;28;19942;-75
2024/03/20 10:28:30;;;;;;;;;;;;;;;8.83;60.61;93356.34;5043560;28;19946;-75
2024/03/20 10:31:05;;;;;;;;;;;;;;;9.40;56.08;93363.69;5043157;28;19912;-76
2024/03/20 10:33:31;;;;;;;;;;;;;;;9.18;54.43;93365.66;5042101;28;20415;-75
2024/03/20 10:35:59;;;;;;;;;;;;;;;9.51;57.26;93357.16;5043244;28;19913;-75
2024/03/20 10:38:26;;;;;;;;;;;;;;;9.13;56.30;93360.34;5040813;28;20380;-75
2024/03/20 10:40:52;;;;;;;;;;;;;;;9.72;57.48;93352.81;5046977;28;20349;-75
2024/03/20 10:43:19;;;;;;;;;;;;;;;10.09;54.71;93350.53;5045669;28;19924;-75
2024/03/20 10:45:44;;;;;;;;;;;;;;;10.24;56.55;93342.56;5035619;28;20393;-74
2024/03/20 10:48:14;;;;;;;;;;;;;;;9.94;54.17;93343.06;5044108;28;20255;-73
2024/03/20 10:50:39;;;;;;;;;;;;;;;9.49;53.14;93344.53;5046518;28;20017;-72
2024/03/20 10:53:05;;;;;;;;;;;;;;;9.38;56.40;93341.78;5036414;28;21075;-72
2024/03/20 10:55:30;;;;;;;;;;;;;;;9.76;56.08;93336.81;5042539;28;20527;-73
2024/03/20 10:57:56;;;;;;;;;;;;;;;9.20;57.89;93338.06;5048557;28;19940;-72
2024/03/20 11:00:24;;;;;;;;;;;;;;;9.19;57.56;93339.84;5040003;28;19921;-73
2024/03/20 11:02:49;;;;;;;;;;;;;;;9.39;56.71;93326.22;5045997;28;19948;-72
2024/03/20 11:05:33;;;;;;;;;;;;;;;9.50;54.08;93332.53;5042724;28;19917;-73
2024/03/20 11:08:00;;;;;;;;;;;;;;;9.30;54.55;93343.56;5042284;28;19912;-72
2024/03/20 11:10:27;;;;;;;;;;;;;;;9.63;54.95;93329.16;5045610;28;20477;-72
2024/03/20 11:12:55;;;;;;;;;;;;;;;9.27;53.16;93335.50;5038848;28;19924;-72
2024/03/20 11:15:24;;;;;;;;;;;;;;;9.21;55.42;93332.72;5046385;28;19919;-72
2024/03/20 11:17:52;;;;;;;;;;;;;;;9.30;56.15;93327.41;5033347;28;20051;-72
2024/03/20 11:20:33;;;;;;;;;;;;;;;9.13;54.95;93330.38;5041069;28;19956;-72
2024/03/20 11:22:59;;;;;;;;;;;;;;;9.67;57.79;93317.47;5040427;28;19921;-73
2024/03/20 11:25:24;;;;;;;;;;;;;;;10.22;56.11;93323.22;5042399;28;20019;-72
2024/03/20 11:27:50;;;;;;;;;;;;;;;10.41;52.28;93319.78;5045776;28;19996;-73
2024/03/20 11:30:15;;;;;;;;;;;;;;;9.75;50.57;93330.09;5039290;28;20285;-72
2024/03/20 11:32:40;;;;;;;;;;;;;;;10.33;56.37;93314.09;5036481;28;20011;-75
2024/03/20 11:35:10;;;;;;;;;;;;;;;10.22;50.91;93331.72;5047002;28;20050;-73
2024/03/20 11:37:35;;;;;;;;;;;;;;;9.84;50.95;93322.19;5040755;28;20548;-73
2024/03/20 11:40:00;;;;;;;;;;;;;;;10.32;50.59;93323.56;5037314;28;19955;-73
2024/03/20 11:42:26;;;;;;;;;;;;;;;10.27;51.70;93324.19;5042920;28;19917;-74
2024/03/20 11:44:51;;;;;;;;;;;;;;;10.09;50.38;93322.28;5044808;28;20258;-73
2024/03/20 11:47:19;;;;;;;;;;;;;;;10.24;51.02;93319.47;5040812;28;19924;-73
2024/03/20 11:49:48;;;;;;;;;;;;;;;10.06;50.59;93317.56;5043788;28;19917;-73
2024/03/20 11:52:17;;;;;;;;;;;;;;;9.66;50.33;93313.34;5045574;28;20040;-73
2024/03/20 11:54:44;;;;;;;;;;;;;;;9.93;50.68;93309.91;5037058;28;20940;-73
2024/03/20 11:57:13;;;;;;;;;;;;;;;9.58;49.80;93324.59;5043643;28;20392;-73
2024/03/20 11:59:39;;;;;;;;;;;;;;;9.85;49.93;93316.06;5039207;28;19925;-74
2024/03/20 12:02:05;;;;;;;;;;;;;;;9.57;48.86;93322.22;5040105;28;20357;-73
2024/03/20 12:04:34;;;;;;;;;;;;;;;9.40;49.53;93320.09;5037994;28;19921;-73
2024/03/20 12:07:00;;;;;;;;;;;;;;;9.56;50.62;93316.34;5040736;28;19943;-73
2024/03/20 12:09:26;;;;;;;;;;;;;;;9.33;50.71;93320.13;5041866;28;20364;-73
2024/03/20 12:11:51;;;;;;;;;;;;;;;9.63;52.21;93311.97;5041144;28;19925;-73
2024/03/20 12:14:16;;;;;;;;;;;;;;;9.43;52.25;93303.53;5039371;28;20027;-73
2024/03/20 12:16:41;;;;;;;;;;;;;;;9.41;53.19;93308.88;5041290;28;20460;-73
2024/03/20 12:19:07;;;;;;;;;;;;;;;9.30;51.33;93315.38;5037040;28;19917;-72
2024/03/20 12:21:33;;;;;;;;;;;;;;;9.31;50.44;93316.19;5040316;28;19964;-73
2024/03/20 12:23:58;;;;;;;;;;;;;;;9.79;51.66;93317.66;5038680;28;20058;-74
2024/03/20 12:26:24;;;;;;;;;;;;;;;10.22;52.51;93297.56;5041324;28;20295;-74
2024/03/20 12:28:53;;;;;;;;;;;;;;;10.29;51.25;93298.31;5040809;28;20007;-73
2024/03/20 12:31:22;;;;;;;;;;;;;;;10.29;49.68;93324.78;5040858;28;19927;-72
2024/03/20 12:33:50;;;;;;;;;;;;;;;9.64;49.89;93310.22;5040840;28;19913;-73
2024/03/20 12:36:18;;;;;;;;;;;;;;;9.73;51.11;93300.50;5042584;28;19947;-73
2024/03/20 12:38:45;;;;;;;;;;;;;;;10.06;48.41;93309.88;5041762;28;19917;-73
2024/03/20 12:41:14;;;;;;;;;;;;;;;10.22;50.11;93305.25;5041234;28;19920;-73
2024/03/20 12:43:40;;;;;;;;;;;;;;;10.54;51.65;93300.97;5043211;28;20646;-73
2024/03/20 12:46:08;;;;;;;;;;;;;;;10.37;49.10;93298.06;5028792;28;19917;-73
2024/03/20 12:48:34;;;;;;;;;;;;;;;10.39;49.79;93293.53;5031046;28;20708;-73